CheckWX is a tool to help pilots better visualize weather data.  It is not intended as a substitute for an official pre-flight weather briefing.

07:00:48 UTC

LQTZ TAF
Tuzla International Airport
Tuzla, Bosnia and Herzegovina
TAF LQTZ 190500Z 1906/2006 VRB02KT CAVOK TX29/1912Z TN17/2003Z PROB30 TEMPO 1911/1919 VRB15KT 4000 TSRA FEW035CB BKN045 PROB40 TEMPO 1921/2006 2000 BR PROB30 TEMPO 2003/2005 0400 FG BKN002

Jun-19@
06:00 UTC

Jun-19 @ 06:00 UTC

Jun-20@
06:00 UTC

Jun-20 @ 06:00 UTC

TAF LQTZ 190500Z 1906/2006 VRB02KT CAVOK TX29/1912Z TN17/2003Z
Wind
  • Variable at 2 KTS
Cloud Levels
  • No significant clouds

Jun-19@
11:00 UTC

Jun-19 @ 11:00 UTC

Jun-19@
19:00 UTC

Jun-19 @ 19:00 UTC

PROB30 TEMPO 1911/1919 VRB15KT 4000 TSRA FEW035CB BKN045

Temporary - 30% Likelihood

Temporary - 30% Likelihood during this time.

Wind
  • Variable at 15 KTS
Conditions
Thunderstorm, Rain
Cloud Levels
  • Few at 3,500' AGL
  • Broken at 4,500' AGL

Jun-19@
21:00 UTC

Jun-19 @ 21:00 UTC

Jun-20@
06:00 UTC

Jun-20 @ 06:00 UTC

PROB40 TEMPO 1921/2006 2000 BR

Temporary - 40% Likelihood

Temporary - 40% Likelihood during this time.

Conditions
Mist

Jun-20@
03:00 UTC

Jun-20 @ 03:00 UTC

Jun-20@
05:00 UTC

Jun-20 @ 05:00 UTC

PROB30 TEMPO 2003/2005 0400 FG BKN002

Temporary - 30% Likelihood

Temporary - 30% Likelihood during this time.

Conditions
Fog
Cloud Levels
  • Broken at 200' AGL